createdAt,value
2023-01-03T00:00:54.633Z,2.90
2023-01-03T00:03:21.138Z,2.50
2023-01-03T00:05:48.517Z,2.40
2023-01-03T00:08:15.684Z,2.17
2023-01-03T00:10:42.340Z,2.47
2023-01-03T00:13:08.901Z,2.43
2023-01-03T00:15:36.506Z,2.43
2023-01-03T00:18:03.315Z,2.67
2023-01-03T00:20:29.809Z,2.00
2023-01-03T00:22:56.411Z,2.50
2023-01-03T00:25:22.894Z,2.33
2023-01-03T00:27:49.453Z,2.30
2023-01-03T00:30:16.051Z,2.27
2023-01-03T00:32:42.764Z,2.63
2023-01-03T00:35:09.643Z,2.53
2023-01-03T00:37:36.130Z,2.23
2023-01-03T00:40:03.625Z,2.87
2023-01-03T00:42:30.150Z,2.13
2023-01-03T00:44:56.602Z,3.57
2023-01-03T00:47:23.123Z,2.40
2023-01-03T00:49:49.683Z,2.57
2023-01-03T00:52:16.216Z,2.47
2023-01-03T00:54:42.798Z,2.37
2023-01-03T00:57:09.295Z,2.00
2023-01-03T00:59:35.806Z,2.10
2023-01-03T01:02:02.430Z,2.17
2023-01-03T01:04:31.474Z,2.10
2023-01-03T01:07:00.893Z,1.97
2023-01-03T01:09:30.400Z,2.17
2023-01-03T01:12:00.425Z,2.83
2023-01-03T01:14:28.805Z,1.83
2023-01-03T01:16:59.576Z,1.97
2023-01-03T01:19:31.672Z,1.97
2023-01-03T01:21:58.515Z,1.57
2023-01-03T01:24:25.593Z,2.03
2023-01-03T01:26:52.627Z,2.67
2023-01-03T01:29:19.348Z,2.20
2023-01-03T01:31:47.551Z,2.53
2023-01-03T01:34:15.129Z,2.73
2023-01-03T01:36:43.347Z,2.10
2023-01-03T01:39:16.202Z,1.83
2023-01-03T01:42:02.883Z,2.50
2023-01-03T01:44:52.311Z,1.73
2023-01-03T01:47:36.574Z,2.43
2023-01-03T01:50:41.277Z,2.93
2023-01-03T01:53:16.169Z,2.20
2023-01-03T01:55:47.374Z,2.80
2023-01-03T01:58:14.555Z,3.17
2023-01-03T02:00:43.799Z,2.30
2023-01-03T02:03:12.214Z,2.30
2023-01-03T02:05:44.216Z,2.03
2023-01-03T02:08:10.808Z,2.17
2023-01-03T02:11:15.085Z,2.70
2023-01-03T02:14:24.404Z,3.00
2023-01-03T02:17:02.827Z,3.23
2023-01-03T02:19:38.157Z,2.37
2023-01-03T02:22:31.945Z,2.50
2023-01-03T02:25:07.798Z,3.13
2023-01-03T02:28:04.429Z,2.53
2023-01-03T02:30:33.865Z,2.57
2023-01-03T02:33:15.682Z,3.03
2023-01-03T02:36:00.858Z,3.30
2023-01-03T02:38:50.997Z,3.70
2023-01-03T02:41:39.475Z,2.57
2023-01-03T02:44:18.105Z,3.20
2023-01-03T02:46:54.534Z,3.03
2023-01-03T02:49:27.788Z,2.87
2023-01-03T02:52:01.154Z,2.53
2023-01-03T02:54:34.272Z,2.47
2023-01-03T02:57:09.938Z,3.80
2023-01-03T02:59:41.467Z,2.97
2023-01-03T03:02:10.702Z,3.07
2023-01-03T03:04:38.426Z,2.70
2023-01-03T03:07:11.775Z,2.47
2023-01-03T03:09:58.227Z,2.47
2023-01-03T03:12:45.607Z,3.00
2023-01-03T03:15:14.010Z,2.90
2023-01-03T03:17:44.464Z,2.63
2023-01-03T03:20:34.479Z,2.57
2023-01-03T03:23:24.813Z,2.90
2023-01-03T03:25:56.583Z,3.10
2023-01-03T03:28:37.565Z,2.47
2023-01-03T03:31:19.300Z,2.80
2023-01-03T03:33:51.813Z,2.97
2023-01-03T03:36:23.476Z,3.03
2023-01-03T03:38:50.617Z,3.00
2023-01-03T03:41:47.221Z,2.70
2023-01-03T03:44:36.719Z,3.00
2023-01-03T03:47:22.010Z,2.97
2023-01-03T03:49:52.888Z,2.77
2023-01-03T03:52:24.271Z,2.53
2023-01-03T03:55:00.640Z,3.00
2023-01-03T03:57:35.743Z,2.77
2023-01-03T04:00:11.236Z,3.03
2023-01-03T04:02:38.344Z,3.00
2023-01-03T04:05:09.777Z,3.40
2023-01-03T04:07:36.530Z,3.00
2023-01-03T04:10:04.610Z,2.90
2023-01-03T04:12:31.145Z,3.07
2023-01-03T04:14:57.592Z,4.03
2023-01-03T04:17:24.083Z,3.00
2023-01-03T04:19:50.598Z,3.57
2023-01-03T04:22:17.125Z,3.40
2023-01-03T04:24:43.646Z,4.40
2023-01-03T04:27:10.142Z,3.27
2023-01-03T04:29:39.429Z,3.53
2023-01-03T04:32:07.130Z,4.13
2023-01-03T04:34:33.624Z,3.67
2023-01-03T04:37:00.146Z,3.73
2023-01-03T04:39:26.586Z,4.17
2023-01-03T04:41:53.112Z,3.97
2023-01-03T04:44:19.622Z,4.37
2023-01-03T04:46:52.314Z,4.50
2023-01-03T04:49:20.471Z,3.87
2023-01-03T04:51:46.988Z,4.60
2023-01-03T04:54:13.453Z,4.20
2023-01-03T04:56:40.010Z,3.90
2023-01-03T04:59:06.619Z,5.03
2023-01-03T05:01:33.475Z,4.53
2023-01-03T05:04:02.049Z,4.20
2023-01-03T05:06:28.968Z,3.77
2023-01-03T05:08:55.903Z,4.50
2023-01-03T05:11:22.966Z,4.07
2023-01-03T05:13:49.536Z,3.87
2023-01-03T05:16:16.203Z,3.77
2023-01-03T05:18:42.769Z,4.27
2023-01-03T05:21:35.975Z,4.73
2023-01-03T05:24:21.345Z,4.23
2023-01-03T05:26:48.257Z,4.87
2023-01-03T05:29:20.092Z,4.43
2023-01-03T05:31:47.149Z,4.10
2023-01-03T05:34:14.193Z,4.87
2023-01-03T05:36:40.928Z,4.10
2023-01-03T05:39:07.912Z,4.57
2023-01-03T05:41:52.932Z,4.23
2023-01-03T05:44:19.447Z,4.20
2023-01-03T05:46:45.875Z,4.50
2023-01-03T05:49:12.677Z,5.10
2023-01-03T05:51:39.280Z,4.30
2023-01-03T05:54:06.240Z,4.67
2023-01-03T05:56:33.194Z,5.30
2023-01-03T05:59:00.720Z,4.57
2023-01-03T06:01:28.609Z,4.90
2023-01-03T06:03:55.933Z,5.00
2023-01-03T06:06:22.515Z,5.10
2023-01-03T06:08:49.523Z,5.27
2023-01-03T06:11:17.634Z,5.40
2023-01-03T06:13:44.894Z,5.30
2023-01-03T06:16:35.550Z,5.47
2023-01-03T06:19:03.226Z,5.50
2023-01-03T06:21:29.768Z,5.00
2023-01-03T06:23:56.348Z,5.50
2023-01-03T06:26:24.341Z,5.67
2023-01-03T06:28:51.896Z,5.07
2023-01-03T06:31:18.917Z,6.43
2023-01-03T06:33:45.704Z,5.93
2023-01-03T06:36:14.376Z,5.40
2023-01-03T06:38:41.083Z,5.60
2023-01-03T06:41:07.743Z,5.90
2023-01-03T06:43:34.549Z,5.90
2023-01-03T06:46:20.293Z,6.50
2023-01-03T06:49:05.964Z,5.33
2023-01-03T06:51:51.908Z,5.67
2023-01-03T06:54:29.974Z,5.70
2023-01-03T06:56:56.706Z,4.67
2023-01-03T06:59:23.723Z,5.17
2023-01-03T07:01:51.911Z,5.60
2023-01-03T07:04:19.696Z,4.80
2023-01-03T07:06:46.385Z,5.17
2023-01-03T07:09:13.376Z,4.40
2023-01-03T07:11:40.824Z,4.83
2023-01-03T07:14:09.232Z,3.87
2023-01-03T07:16:38.737Z,4.17
2023-01-03T07:19:07.147Z,4.07
2023-01-03T07:21:35.061Z,4.00
2023-01-03T07:24:03.559Z,4.03
2023-01-03T07:26:32.327Z,4.30
2023-01-03T07:28:59.880Z,4.00
2023-01-03T07:31:27.079Z,3.40
2023-01-03T07:33:54.965Z,2.93
2023-01-03T07:36:21.925Z,3.60
2023-01-03T07:38:48.569Z,3.47
2023-01-03T07:41:16.101Z,2.57
2023-01-03T07:43:45.586Z,3.03
2023-01-03T07:46:22.009Z,3.57
2023-01-03T07:48:51.091Z,3.77
2023-01-03T07:51:19.089Z,3.23
2023-01-03T07:53:45.977Z,3.67
2023-01-03T07:56:16.431Z,3.83
2023-01-03T07:58:44.677Z,4.13
2023-01-03T08:01:19.766Z,3.27
2023-01-03T08:03:46.763Z,3.90
2023-01-03T08:06:15.963Z,3.37
2023-01-03T08:08:43.148Z,3.30
2023-01-03T08:11:32.915Z,4.40
2023-01-03T08:14:00.008Z,3.93
2023-01-03T08:16:26.761Z,4.70
2023-01-03T08:18:53.351Z,4.53
2023-01-03T08:21:20.038Z,4.53
2023-01-03T08:23:48.956Z,4.63
2023-01-03T08:26:17.191Z,4.27
2023-01-03T08:28:44.546Z,4.73
2023-01-03T08:31:23.008Z,5.03
2023-01-03T08:33:57.462Z,5.63
2023-01-03T08:36:26.378Z,5.10
2023-01-03T08:39:00.214Z,5.67
2023-01-03T08:41:29.649Z,5.20
2023-01-03T08:44:00.602Z,6.10
2023-01-03T08:46:28.031Z,6.33
2023-01-03T08:48:55.685Z,5.50
2023-01-03T08:51:22.365Z,6.00
2023-01-03T08:53:48.847Z,5.73
2023-01-03T08:56:15.389Z,7.93
2023-01-03T08:58:41.825Z,6.20
2023-01-03T09:01:09.780Z,5.83
2023-01-03T09:03:36.569Z,5.97
2023-01-03T09:06:04.188Z,6.90
2023-01-03T09:08:32.033Z,6.60
2023-01-03T09:10:59.171Z,5.30
2023-01-03T09:13:25.735Z,6.30
2023-01-03T09:16:00.538Z,6.23
2023-01-03T09:18:26.983Z,7.03
2023-01-03T09:20:53.670Z,5.67
2023-01-03T09:23:20.267Z,6.30
2023-01-03T09:25:47.113Z,5.70
2023-01-03T09:28:13.958Z,5.23
2023-01-03T09:30:40.559Z,5.87
2023-01-03T09:33:10.299Z,6.07
2023-01-03T09:35:37.923Z,5.67
2023-01-03T09:38:04.787Z,5.47
2023-01-03T09:40:36.854Z,5.50
2023-01-03T09:43:17.395Z,6.43
2023-01-03T09:45:52.335Z,6.07
2023-01-03T09:48:33.362Z,5.53
2023-01-03T09:51:21.170Z,5.47
2023-01-03T09:54:05.180Z,4.87
2023-01-03T09:56:51.153Z,5.57
2023-01-03T09:59:37.391Z,5.80
2023-01-03T10:02:41.217Z,6.37
2023-01-03T10:05:37.778Z,5.70
2023-01-03T10:08:16.573Z,4.83
2023-01-03T10:11:09.239Z,5.93
2023-01-03T10:14:06.351Z,6.10
2023-01-03T10:16:49.875Z,6.73
2023-01-03T10:19:41.729Z,6.40
2023-01-03T10:22:13.072Z,7.07
2023-01-03T10:24:47.439Z,7.30
2023-01-03T10:27:27.539Z,6.00
2023-01-03T10:29:59.311Z,6.37
2023-01-03T10:32:25.760Z,6.10
2023-01-03T10:35:17.073Z,6.07
2023-01-03T10:37:44.605Z,5.83
2023-01-03T10:40:12.609Z,6.07
2023-01-03T10:42:41.211Z,6.23
2023-01-03T10:45:19.539Z,5.60
2023-01-03T10:47:59.131Z,5.83
2023-01-03T10:50:25.665Z,5.73
2023-01-03T10:53:06.542Z,6.60
2023-01-03T10:55:34.890Z,6.27
2023-01-03T10:58:04.626Z,7.37
2023-01-03T11:00:37.303Z,6.43
2023-01-03T11:03:17.390Z,5.97
2023-01-03T11:05:50.857Z,5.90
2023-01-03T11:08:21.292Z,5.63
2023-01-03T11:10:59.671Z,4.80
2023-01-03T11:13:40.739Z,5.67
2023-01-03T11:16:16.718Z,5.40
2023-01-03T11:18:44.234Z,4.97
2023-01-03T11:21:23.753Z,4.77
2023-01-03T11:24:32.732Z,4.80
2023-01-03T11:27:37.004Z,4.80
2023-01-03T11:30:17.319Z,5.10
2023-01-03T11:33:00.277Z,5.77
2023-01-03T11:35:45.058Z,4.53
2023-01-03T11:38:46.423Z,4.50
2023-01-03T11:41:48.587Z,4.27
2023-01-03T11:44:49.693Z,4.30
2023-01-03T11:47:31.141Z,4.00
2023-01-03T11:50:24.871Z,3.93
2023-01-03T11:53:04.553Z,3.70
2023-01-03T11:55:52.308Z,3.97
2023-01-03T11:58:37.123Z,3.73
2023-01-03T12:01:25.037Z,3.97
2023-01-03T12:04:13.209Z,2.57
2023-01-03T12:07:21.485Z,3.57
2023-01-03T12:09:58.179Z,3.27
2023-01-03T12:12:43.245Z,2.97
2023-01-03T12:15:24.748Z,3.37
2023-01-03T12:18:03.420Z,3.57
2023-01-03T12:20:37.381Z,4.00
2023-01-03T12:23:23.046Z,3.63
2023-01-03T12:26:00.147Z,3.70
2023-01-03T12:28:36.196Z,3.97
2023-01-03T12:31:31.699Z,3.57
2023-01-03T12:34:22.651Z,3.27
2023-01-03T12:37:08.497Z,3.63
2023-01-03T12:39:43.899Z,3.30
2023-01-03T12:42:19.799Z,3.60
2023-01-03T12:44:49.487Z,3.33
2023-01-03T12:47:34.877Z,3.17
2023-01-03T12:50:17.360Z,3.60
2023-01-03T12:52:48.498Z,3.33
2023-01-03T12:55:19.843Z,3.77
2023-01-03T12:58:17.480Z,4.43
2023-01-03T13:01:00.584Z,4.13
2023-01-03T13:03:38.837Z,3.60
2023-01-03T13:06:16.655Z,3.57
2023-01-03T13:08:46.246Z,3.70
2023-01-03T13:11:21.564Z,3.83
2023-01-03T13:14:03.311Z,3.70
2023-01-03T13:16:41.907Z,4.33
2023-01-03T13:19:20.378Z,4.50
2023-01-03T13:21:53.117Z,4.27
2023-01-03T13:24:46.090Z,3.80
2023-01-03T13:27:19.079Z,4.83
2023-01-03T13:29:48.300Z,3.73
2023-01-03T13:32:23.976Z,5.23
2023-01-03T13:34:56.562Z,4.30
2023-01-03T13:37:26.101Z,4.10
2023-01-03T13:39:52.536Z,3.67
2023-01-03T13:42:35.339Z,4.37
2023-01-03T13:45:10.943Z,4.80
2023-01-03T13:47:43.992Z,4.23
2023-01-03T13:50:33.369Z,3.90
2023-01-03T13:53:25.730Z,4.00
2023-01-03T13:56:18.995Z,4.70
2023-01-03T13:59:01.760Z,6.20
2023-01-03T14:01:56.339Z,6.37
2023-01-03T14:04:41.593Z,5.53
2023-01-03T14:07:29.559Z,5.17
2023-01-03T14:10:11.441Z,5.27
2023-01-03T14:13:08.903Z,5.07
2023-01-03T14:15:35.593Z,5.17
2023-01-03T14:18:15.394Z,4.97
2023-01-03T14:20:51.858Z,5.00
2023-01-03T14:23:58.406Z,5.10
2023-01-03T14:26:18.468Z,4.80
2023-01-03T14:28:50.979Z,4.63
2023-01-03T14:31:24.700Z,4.87
2023-01-03T14:33:57.831Z,5.10
2023-01-03T14:36:24.921Z,4.70
2023-01-03T14:38:51.431Z,5.03
2023-01-03T14:41:31.108Z,5.50
2023-01-03T14:44:16.659Z,14.80
2023-01-03T14:46:53.735Z,5.43
2023-01-03T14:49:35.315Z,5.90
2023-01-03T14:52:16.321Z,5.53
2023-01-03T14:54:50.841Z,6.57
2023-01-03T14:57:28.134Z,6.27
2023-01-03T14:59:58.367Z,6.47
2023-01-03T15:02:25.905Z,5.53
2023-01-03T15:04:56.147Z,5.73
2023-01-03T15:07:31.682Z,4.63
2023-01-03T15:10:05.776Z,5.27
2023-01-03T15:12:35.752Z,5.17
2023-01-03T15:15:20.749Z,5.67
2023-01-03T15:17:50.453Z,5.20
2023-01-03T15:20:19.719Z,6.13
2023-01-03T15:22:46.534Z,4.60
2023-01-03T15:25:33.333Z,6.33
2023-01-03T15:28:26.641Z,5.97
2023-01-03T15:30:57.051Z,5.90
2023-01-03T15:33:33.969Z,5.70
2023-01-03T15:36:18.874Z,5.80
2023-01-03T15:38:47.549Z,5.47
2023-01-03T15:41:39.770Z,5.90
2023-01-03T15:44:07.360Z,6.13
2023-01-03T15:46:34.370Z,7.00
2023-01-03T15:49:03.125Z,7.60
2023-01-03T15:51:29.753Z,8.03
2023-01-03T15:53:56.379Z,8.10
2023-01-03T15:56:35.054Z,7.80
2023-01-03T15:59:07.013Z,7.77
2023-01-03T16:01:33.811Z,8.50
2023-01-03T16:04:00.506Z,9.30
2023-01-03T16:06:27.180Z,9.27
2023-01-03T16:08:53.894Z,8.80
2023-01-03T16:11:29.850Z,8.67
2023-01-03T16:14:03.475Z,9.90
2023-01-03T16:16:40.547Z,9.97
2023-01-03T16:19:08.322Z,10.63
2023-01-03T16:21:34.996Z,10.87
2023-01-03T16:24:02.788Z,9.97
2023-01-03T16:26:29.440Z,10.83
2023-01-03T16:28:56.534Z,11.00
2023-01-03T16:31:31.955Z,10.60
2023-01-03T16:33:59.069Z,10.47
2023-01-03T16:36:38.226Z,10.93
2023-01-03T16:39:16.407Z,11.23
2023-01-03T16:41:44.623Z,10.40
2023-01-03T16:44:11.283Z,12.87
2023-01-03T16:46:38.994Z,10.77
2023-01-03T16:49:06.546Z,13.03
2023-01-03T16:51:36.205Z,13.50
2023-01-03T16:54:07.625Z,13.57
2023-01-03T16:56:34.146Z,12.13
2023-01-03T16:59:00.669Z,13.20
2023-01-03T17:01:27.329Z,11.83
2023-01-03T17:03:54.474Z,12.37
2023-01-03T17:06:37.448Z,12.07
2023-01-03T17:09:11.940Z,17.00
2023-01-03T17:11:38.787Z,11.87
2023-01-03T17:14:05.356Z,12.17
2023-01-03T17:16:33.097Z,11.63
2023-01-03T17:19:00.972Z,11.00
2023-01-03T17:21:29.854Z,12.47
2023-01-03T17:24:02.941Z,13.10
2023-01-03T17:26:32.271Z,12.27
2023-01-03T17:29:00.797Z,12.17
2023-01-03T17:31:28.444Z,12.80
2023-01-03T17:33:55.260Z,13.17
2023-01-03T17:36:27.497Z,13.03
2023-01-03T17:38:55.113Z,14.47
2023-01-03T17:41:24.129Z,13.17
2023-01-03T17:43:50.727Z,13.63
2023-01-03T17:46:46.405Z,14.40
2023-01-03T17:49:25.972Z,13.53
2023-01-03T17:51:59.119Z,13.70
2023-01-03T17:54:36.962Z,13.53
2023-01-03T17:57:04.130Z,13.47
2023-01-03T17:59:31.119Z,14.77
2023-01-03T18:01:58.593Z,14.53
2023-01-03T18:04:44.045Z,13.77
2023-01-03T18:07:19.991Z,16.93
2023-01-03T18:09:47.667Z,16.00
2023-01-03T18:12:20.141Z,14.27
2023-01-03T18:14:49.165Z,15.00
2023-01-03T18:17:30.664Z,15.10
2023-01-03T18:19:58.253Z,14.90
2023-01-03T18:22:25.368Z,14.77
2023-01-03T18:24:53.215Z,14.10
2023-01-03T18:27:25.653Z,14.60
2023-01-03T18:29:52.386Z,14.20
2023-01-03T18:32:27.149Z,13.63
2023-01-03T18:34:53.881Z,14.30
2023-01-03T18:37:21.541Z,14.03
2023-01-03T18:39:48.077Z,15.23
2023-01-03T18:42:33.237Z,13.73
2023-01-03T18:44:59.697Z,14.80
2023-01-03T18:47:26.369Z,15.37
2023-01-03T18:49:53.052Z,14.07
2023-01-03T18:52:28.559Z,15.13
2023-01-03T18:54:55.409Z,15.03
2023-01-03T18:57:23.268Z,15.77
2023-01-03T18:59:50.455Z,15.67
2023-01-03T19:02:19.706Z,15.73
2023-01-03T19:04:51.228Z,15.83
2023-01-03T19:07:24.734Z,15.03
2023-01-03T19:09:51.565Z,16.20
2023-01-03T19:12:19.330Z,16.60
2023-01-03T19:14:46.866Z,16.67
2023-01-03T19:17:19.233Z,17.70
2023-01-03T19:19:46.095Z,15.60
2023-01-03T19:22:29.141Z,17.37
2023-01-03T19:24:59.823Z,21.17
2023-01-03T19:27:42.053Z,20.10
2023-01-03T19:30:19.831Z,17.07
2023-01-03T19:32:53.154Z,18.33
2023-01-03T19:35:20.205Z,18.80
2023-01-03T19:37:47.085Z,16.83
2023-01-03T19:40:15.671Z,15.90
2023-01-03T19:42:50.466Z,16.17
2023-01-03T19:45:27.758Z,16.73
2023-01-03T19:47:55.600Z,15.67
2023-01-03T19:50:25.412Z,15.83
2023-01-03T19:52:53.525Z,15.77
2023-01-03T19:55:25.051Z,14.20
2023-01-03T19:57:52.025Z,15.37
2023-01-03T20:00:24.806Z,16.17
2023-01-03T20:02:55.445Z,15.77
2023-01-03T20:05:24.952Z,15.87
2023-01-03T20:07:52.239Z,15.07
2023-01-03T20:10:24.310Z,15.43
2023-01-03T20:12:53.638Z,14.67
2023-01-03T20:15:22.587Z,14.40
2023-01-03T20:17:49.283Z,14.57
2023-01-03T20:20:16.089Z,14.07
2023-01-03T20:25:33.395Z,14.83
2023-01-03T20:28:01.348Z,13.47
2023-01-03T20:30:30.558Z,13.93
2023-01-03T20:32:57.372Z,13.87
2023-01-03T20:38:12.542Z,14.10
2023-01-03T20:40:39.248Z,13.87
2023-01-03T20:43:06.024Z,21.07
2023-01-03T20:45:33.363Z,14.63
2023-01-03T20:48:00.539Z,14.13
2023-01-03T20:50:29.050Z,13.37
2023-01-03T20:52:57.253Z,15.00
2023-01-03T20:55:26.601Z,13.23
2023-01-03T20:57:53.320Z,13.17
2023-01-03T21:00:26.647Z,14.87
2023-01-03T21:02:53.507Z,13.07
2023-01-03T21:05:20.841Z,13.47
2023-01-03T21:08:06.294Z,14.60
2023-01-03T21:10:37.449Z,12.80
2023-01-03T21:13:04.703Z,13.97
2023-01-03T21:15:31.317Z,14.00
2023-01-03T21:17:57.815Z,13.27
2023-01-03T21:20:26.473Z,13.10
2023-01-03T21:22:53.589Z,13.87
2023-01-03T21:25:26.247Z,13.03
2023-01-03T21:27:53.900Z,12.30
2023-01-03T21:30:22.592Z,12.57
2023-01-03T21:32:49.679Z,12.40
2023-01-03T21:35:19.300Z,13.03
2023-01-03T21:37:46.655Z,12.13
2023-01-03T21:40:25.044Z,12.23
2023-01-03T21:43:03.621Z,11.47
2023-01-03T21:45:35.673Z,11.57
2023-01-03T21:48:08.336Z,11.77
2023-01-03T21:50:38.680Z,10.77
2023-01-03T21:53:05.907Z,9.40
2023-01-03T21:55:32.956Z,11.03
2023-01-03T21:58:00.860Z,11.00
2023-01-03T22:00:27.506Z,10.40
2023-01-03T22:03:12.730Z,10.80
2023-01-03T22:05:39.300Z,10.03
2023-01-03T22:08:06.658Z,9.47
2023-01-03T22:10:34.383Z,9.93
2023-01-03T22:13:04.415Z,9.33
2023-01-03T22:15:31.011Z,9.63
2023-01-03T22:17:57.585Z,9.07
2023-01-03T22:20:26.345Z,8.00
2023-01-03T22:22:54.484Z,8.70
2023-01-03T22:25:23.536Z,8.60
2023-01-03T22:27:50.178Z,9.00
2023-01-03T22:30:19.213Z,7.77
2023-01-03T22:32:48.040Z,7.00
2023-01-03T22:35:16.672Z,7.20
2023-01-03T22:37:43.258Z,9.50
2023-01-03T22:40:14.952Z,6.97
2023-01-03T22:42:41.708Z,7.17
2023-01-03T22:45:09.880Z,7.03
2023-01-03T22:47:37.565Z,6.77
2023-01-03T22:50:05.538Z,6.57
2023-01-03T22:52:32.074Z,6.07
2023-01-03T22:54:58.816Z,5.93
2023-01-03T22:57:25.398Z,6.97
2023-01-03T22:59:51.897Z,6.77
2023-01-03T23:02:21.996Z,6.30
2023-01-03T23:04:51.761Z,6.50
2023-01-03T23:07:18.410Z,6.60
2023-01-03T23:09:44.931Z,5.83
2023-01-03T23:12:29.927Z,6.13
2023-01-03T23:14:56.445Z,5.20
2023-01-03T23:17:41.390Z,6.20
2023-01-03T23:20:08.453Z,4.80
2023-01-03T23:22:35.004Z,4.70
2023-01-03T23:25:01.516Z,4.80
2023-01-03T23:27:28.060Z,4.10
2023-01-03T23:29:55.316Z,4.87
2023-01-03T23:32:21.921Z,4.57
2023-01-03T23:34:48.607Z,3.90
2023-01-03T23:37:15.131Z,4.17
2023-01-03T23:39:43.100Z,3.37
2023-01-03T23:42:09.784Z,3.87
2023-01-03T23:44:36.293Z,3.40
2023-01-03T23:47:09.263Z,3.37
2023-01-03T23:49:37.790Z,3.33
2023-01-03T23:52:04.476Z,3.37
2023-01-03T23:54:31.039Z,2.20
2023-01-03T23:56:57.600Z,2.77
2023-01-03T23:59:25.476Z,2.43
